sensor_id;sensor_type;location;lat;lon;timestamp;temperature;humidity
9776;DHT22;4927;52.472;13.108;2023-04-15T00:00:15;7.60;99.90
9776;DHT22;4927;52.472;13.108;2023-04-15T00:01:17;7.60;99.90
9776;DHT22;4927;52.472;13.108;2023-04-15T00:02:19;7.60;99.90
9776;DHT22;4927;52.472;13.108;2023-04-15T00:03:21;7.60;99.90
9776;DHT22;4927;52.472;13.108;2023-04-15T00:04:23;7.60;99.90
9776;DHT22;4927;52.472;13.108;2023-04-15T00:05:25;7.60;99.90
9776;DHT22;4927;52.472;13.108;2023-04-15T00:06:27;7.60;99.90
9776;DHT22;4927;52.472;13.108;2023-04-15T00:07:28;7.60;99.90
9776;DHT22;4927;52.472;13.108;2023-04-15T00:08:30;7.60;99.90
9776;DHT22;4927;52.472;13.108;2023-04-15T00:09:32;7.60;99.90
9776;DHT22;4927;52.472;13.108;2023-04-15T00:10:34;7.60;99.90
9776;DHT22;4927;52.472;13.108;2023-04-15T00:11:35;7.60;99.90
9776;DHT22;4927;52.472;13.108;2023-04-15T00:12:37;7.60;99.90
9776;DHT22;4927;52.472;13.108;2023-04-15T00:13:39;7.60;99.90
9776;DHT22;4927;52.472;13.108;2023-04-15T00:14:41;7.70;99.90
9776;DHT22;4927;52.472;13.108;2023-04-15T00:15:43;7.70;99.90
9776;DHT22;4927;52.472;13.108;2023-04-15T00:16:44;7.70;99.90
9776;DHT22;4927;52.472;13.108;2023-04-15T00:17:48;7.70;99.90
9776;DHT22;4927;52.472;13.108;2023-04-15T00:18:48;7.70;99.90
9776;DHT22;4927;52.472;13.108;2023-04-15T00:19:50;7.70;99.90
9776;DHT22;4927;52.472;13.108;2023-04-15T00:20:51;7.70;99.90
9776;DHT22;4927;52.472;13.108;2023-04-15T00:21:53;7.70;99.90
9776;DHT22;4927;52.472;13.108;2023-04-15T00:22:55;7.70;99.90
9776;DHT22;4927;52.472;13.108;2023-04-15T00:23:57;7.70;99.90
9776;DHT22;4927;52.472;13.108;2023-04-15T00:25:00;7.70;99.90
9776;DHT22;4927;52.472;13.108;2023-04-15T00:26:02;7.70;99.90
9776;DHT22;4927;52.472;13.108;2023-04-15T00:27:04;7.70;99.90
9776;DHT22;4927;52.472;13.108;2023-04-15T00:28:06;7.70;99.90
9776;DHT22;4927;52.472;13.108;2023-04-15T00:29:09;7.70;99.90
9776;DHT22;4927;52.472;13.108;2023-04-15T00:30:10;7.70;99.90
9776;DHT22;4927;52.472;13.108;2023-04-15T00:31:12;7.70;99.90
9776;DHT22;4927;52.472;13.108;2023-04-15T00:32:14;7.70;99.90
9776;DHT22;4927;52.472;13.108;2023-04-15T00:33:16;7.70;99.90
9776;DHT22;4927;52.472;13.108;2023-04-15T00:34:18;7.80;99.90
9776;DHT22;4927;52.472;13.108;2023-04-15T00:35:19;7.80;99.90
9776;DHT22;4927;52.472;13.108;2023-04-15T00:36:21;7.80;99.90
9776;DHT22;4927;52.472;13.108;2023-04-15T00:37:23;7.80;99.90
9776;DHT22;4927;52.472;13.108;2023-04-15T00:38:25;7.80;99.90
9776;DHT22;4927;52.472;13.108;2023-04-15T00:39:27;7.70;99.90
9776;DHT22;4927;52.472;13.108;2023-04-15T00:40:29;7.80;99.90
9776;DHT22;4927;52.472;13.108;2023-04-15T00:41:30;7.80;99.90
9776;DHT22;4927;52.472;13.108;2023-04-15T00:42:35;7.80;99.90
9776;DHT22;4927;52.472;13.108;2023-04-15T00:43:37;7.80;99.90
9776;DHT22;4927;52.472;13.108;2023-04-15T00:44:39;7.80;99.90
9776;DHT22;4927;52.472;13.108;2023-04-15T00:45:41;7.80;99.90
9776;DHT22;4927;52.472;13.108;2023-04-15T00:46:42;7.80;99.90
9776;DHT22;4927;52.472;13.108;2023-04-15T00:47:44;7.80;99.90
9776;DHT22;4927;52.472;13.108;2023-04-15T00:48:46;7.70;99.90
9776;DHT22;4927;52.472;13.108;2023-04-15T00:49:48;7.70;99.90
9776;DHT22;4927;52.472;13.108;2023-04-15T00:50:49;7.70;99.90
9776;DHT22;4927;52.472;13.108;2023-04-15T00:51:52;7.70;99.90
9776;DHT22;4927;52.472;13.108;2023-04-15T00:52:54;7.70;99.90
9776;DHT22;4927;52.472;13.108;2023-04-15T00:53:56;7.70;99.90
9776;DHT22;4927;52.472;13.108;2023-04-15T00:54:58;7.70;99.90
9776;DHT22;4927;52.472;13.108;2023-04-15T00:55:59;7.80;99.90
9776;DHT22;4927;52.472;13.108;2023-04-15T00:57:03;7.80;99.90
9776;DHT22;4927;52.472;13.108;2023-04-15T00:58:03;7.70;99.90
9776;DHT22;4927;52.472;13.108;2023-04-15T00:59:05;7.80;99.90
9776;DHT22;4927;52.472;13.108;2023-04-15T01:00:08;7.80;99.90
9776;DHT22;4927;52.472;13.108;2023-04-15T01:01:10;7.70;99.90
9776;DHT22;4927;52.472;13.108;2023-04-15T01:02:13;7.70;99.90
9776;DHT22;4927;52.472;13.108;2023-04-15T01:03:15;7.70;99.90
9776;DHT22;4927;52.472;13.108;2023-04-15T01:04:16;7.70;99.90
9776;DHT22;4927;52.472;13.108;2023-04-15T01:05:18;7.70;99.90
9776;DHT22;4927;52.472;13.108;2023-04-15T01:06:20;7.70;99.90
9776;DHT22;4927;52.472;13.108;2023-04-15T01:07:22;7.70;99.90
9776;DHT22;4927;52.472;13.108;2023-04-15T01:08:27;7.70;99.90
9776;DHT22;4927;52.472;13.108;2023-04-15T01:09:29;7.70;99.90
9776;DHT22;4927;52.472;13.108;2023-04-15T01:10:32;7.70;99.90
9776;DHT22;4927;52.472;13.108;2023-04-15T01:11:35;7.70;99.90
9776;DHT22;4927;52.472;13.108;2023-04-15T01:12:37;7.70;99.90
9776;DHT22;4927;52.472;13.108;2023-04-15T01:13:39;7.70;99.90
9776;DHT22;4927;52.472;13.108;2023-04-15T01:14:41;7.70;99.90
9776;DHT22;4927;52.472;13.108;2023-04-15T01:15:43;7.70;99.90
9776;DHT22;4927;52.472;13.108;2023-04-15T01:16:45;7.70;99.90
9776;DHT22;4927;52.472;13.108;2023-04-15T01:17:48;7.70;99.90
9776;DHT22;4927;52.472;13.108;2023-04-15T01:18:50;7.70;99.90
9776;DHT22;4927;52.472;13.108;2023-04-15T01:19:52;7.70;99.90
9776;DHT22;4927;52.472;13.108;2023-04-15T01:20:54;7.70;99.90
9776;DHT22;4927;52.472;13.108;2023-04-15T01:21:56;7.70;99.90
9776;DHT22;4927;52.472;13.108;2023-04-15T01:22:58;7.70;99.90
9776;DHT22;4927;52.472;13.108;2023-04-15T01:23:59;7.70;99.90
9776;DHT22;4927;52.472;13.108;2023-04-15T01:25:11;7.70;99.90
9776;DHT22;4927;52.472;13.108;2023-04-15T01:26:13;7.70;99.90
9776;DHT22;4927;52.472;13.108;2023-04-15T01:27:15;7.70;99.90
9776;DHT22;4927;52.472;13.108;2023-04-15T01:28:17;7.70;99.90
9776;DHT22;4927;52.472;13.108;2023-04-15T01:29:19;7.80;99.90
9776;DHT22;4927;52.472;13.108;2023-04-15T01:30:21;7.70;99.90
9776;DHT22;4927;52.472;13.108;2023-04-15T01:31:23;7.70;99.90
9776;DHT22;4927;52.472;13.108;2023-04-15T01:32:25;7.70;99.90
9776;DHT22;4927;52.472;13.108;2023-04-15T01:33:27;7.70;99.90
9776;DHT22;4927;52.472;13.108;2023-04-15T01:34:29;7.70;99.90
9776;DHT22;4927;52.472;13.108;2023-04-15T01:35:31;7.70;99.90
9776;DHT22;4927;52.472;13.108;2023-04-15T01:36:33;7.70;99.90
9776;DHT22;4927;52.472;13.108;2023-04-15T01:37:35;7.70;99.90
9776;DHT22;4927;52.472;13.108;2023-04-15T01:38:37;7.70;99.90
9776;DHT22;4927;52.472;13.108;2023-04-15T01:39:40;7.70;99.90
9776;DHT22;4927;52.472;13.108;2023-04-15T01:40:42;7.80;99.90
9776;DHT22;4927;52.472;13.108;2023-04-15T01:41:44;7.80;99.90
9776;DHT22;4927;52.472;13.108;2023-04-15T01:42:47;7.70;99.90
9776;DHT22;4927;52.472;13.108;2023-04-15T01:43:49;7.80;99.90
9776;DHT22;4927;52.472;13.108;2023-04-15T01:44:51;7.80;99.90
9776;DHT22;4927;52.472;13.108;2023-04-15T01:45:53;7.70;99.90
9776;DHT22;4927;52.472;13.108;2023-04-15T01:46:55;7.70;99.90
9776;DHT22;4927;52.472;13.108;2023-04-15T01:47:57;7.70;99.90
9776;DHT22;4927;52.472;13.108;2023-04-15T01:49:00;7.70;99.90
9776;DHT22;4927;52.472;13.108;2023-04-15T01:50:04;7.70;99.90
9776;DHT22;4927;52.472;13.108;2023-04-15T01:51:07;7.70;99.90
9776;DHT22;4927;52.472;13.108;2023-04-15T01:52:09;7.70;99.90
9776;DHT22;4927;52.472;13.108;2023-04-15T01:53:12;7.70;99.90
9776;DHT22;4927;52.472;13.108;2023-04-15T01:54:13;7.70;99.90
9776;DHT22;4927;52.472;13.108;2023-04-15T01:55:15;7.70;99.90
9776;DHT22;4927;52.472;13.108;2023-04-15T01:56:18;7.80;99.90
9776;DHT22;4927;52.472;13.108;2023-04-15T01:57:21;7.80;99.90
9776;DHT22;4927;52.472;13.108;2023-04-15T01:58:23;7.80;99.90
9776;DHT22;4927;52.472;13.108;2023-04-15T01:59:25;7.80;99.90
9776;DHT22;4927;52.472;13.108;2023-04-15T02:00:27;7.80;99.90
9776;DHT22;4927;52.472;13.108;2023-04-15T02:01:30;7.80;99.90
9776;DHT22;4927;52.472;13.108;2023-04-15T02:02:32;7.70;99.90
9776;DHT22;4927;52.472;13.108;2023-04-15T02:03:34;7.70;99.90
9776;DHT22;4927;52.472;13.108;2023-04-15T02:04:37;7.70;99.90
9776;DHT22;4927;52.472;13.108;2023-04-15T02:05:40;7.70;99.90
9776;DHT22;4927;52.472;13.108;2023-04-15T02:06:44;7.70;99.90
9776;DHT22;4927;52.472;13.108;2023-04-15T02:07:46;7.70;99.90
9776;DHT22;4927;52.472;13.108;2023-04-15T02:08:48;7.70;99.90
9776;DHT22;4927;52.472;13.108;2023-04-15T02:09:51;7.70;99.90
9776;DHT22;4927;52.472;13.108;2023-04-15T02:10:53;7.70;99.90
9776;DHT22;4927;52.472;13.108;2023-04-15T02:11:55;7.70;99.90
9776;DHT22;4927;52.472;13.108;2023-04-15T02:12:58;7.70;99.90
9776;DHT22;4927;52.472;13.108;2023-04-15T02:14:00;7.70;99.90
9776;DHT22;4927;52.472;13.108;2023-04-15T02:15:02;7.70;99.90
9776;DHT22;4927;52.472;13.108;2023-04-15T02:16:04;7.70;99.90
9776;DHT22;4927;52.472;13.108;2023-04-15T02:17:07;7.70;99.90
9776;DHT22;4927;52.472;13.108;2023-04-15T02:18:09;7.70;99.90
9776;DHT22;4927;52.472;13.108;2023-04-15T02:19:10;7.70;99.90
9776;DHT22;4927;52.472;13.108;2023-04-15T02:20:12;7.70;99.90
9776;DHT22;4927;52.472;13.108;2023-04-15T02:21:14;7.70;99.90
9776;DHT22;4927;52.472;13.108;2023-04-15T02:22:15;7.70;99.90
9776;DHT22;4927;52.472;13.108;2023-04-15T02:23:17;7.70;99.90
9776;DHT22;4927;52.472;13.108;2023-04-15T02:24:19;7.70;99.90
9776;DHT22;4927;52.472;13.108;2023-04-15T02:25:21;7.70;99.90
9776;DHT22;4927;52.472;13.108;2023-04-15T02:26:23;7.70;99.90
9776;DHT22;4927;52.472;13.108;2023-04-15T02:27:25;7.70;99.90
9776;DHT22;4927;52.472;13.108;2023-04-15T02:28:26;7.70;99.90
9776;DHT22;4927;52.472;13.108;2023-04-15T02:29:30;7.70;99.90
9776;DHT22;4927;52.472;13.108;2023-04-15T02:30:31;7.70;99.90
9776;DHT22;4927;52.472;13.108;2023-04-15T02:31:33;7.70;99.90
9776;DHT22;4927;52.472;13.108;2023-04-15T02:32:35;7.70;99.90
9776;DHT22;4927;52.472;13.108;2023-04-15T02:33:37;7.70;99.90
9776;DHT22;4927;52.472;13.108;2023-04-15T02:34:39;7.70;99.90
9776;DHT22;4927;52.472;13.108;2023-04-15T02:35:40;7.70;99.90
9776;DHT22;4927;52.472;13.108;2023-04-15T02:36:42;7.70;99.90
9776;DHT22;4927;52.472;13.108;2023-04-15T02:37:44;7.70;99.90
9776;DHT22;4927;52.472;13.108;2023-04-15T02:38:46;7.70;99.90
9776;DHT22;4927;52.472;13.108;2023-04-15T02:39:48;7.60;99.90
9776;DHT22;4927;52.472;13.108;2023-04-15T02:40:50;7.70;99.90
9776;DHT22;4927;52.472;13.108;2023-04-15T02:41:51;7.70;99.90
9776;DHT22;4927;52.472;13.108;2023-04-15T02:42:53;7.60;99.90
9776;DHT22;4927;52.472;13.108;2023-04-15T02:43:55;7.70;99.90
9776;DHT22;4927;52.472;13.108;2023-04-15T02:44:57;7.70;99.90
9776;DHT22;4927;52.472;13.108;2023-04-15T02:45:59;7.70;99.90
9776;DHT22;4927;52.472;13.108;2023-04-15T02:47:01;7.70;99.90
9776;DHT22;4927;52.472;13.108;2023-04-15T02:48:03;7.70;99.90
9776;DHT22;4927;52.472;13.108;2023-04-15T02:49:06;7.70;99.90
9776;DHT22;4927;52.472;13.108;2023-04-15T02:50:10;7.70;99.90
9776;DHT22;4927;52.472;13.108;2023-04-15T02:51:19;7.70;99.90
9776;DHT22;4927;52.472;13.108;2023-04-15T02:52:20;7.70;99.90
9776;DHT22;4927;52.472;13.108;2023-04-15T02:53:22;7.60;99.90
9776;DHT22;4927;52.472;13.108;2023-04-15T02:54:24;7.60;99.90
9776;DHT22;4927;52.472;13.108;2023-04-15T02:55:26;7.60;99.90
9776;DHT22;4927;52.472;13.108;2023-04-15T02:56:29;7.60;99.90
9776;DHT22;4927;52.472;13.108;2023-04-15T02:57:31;7.60;99.90
9776;DHT22;4927;52.472;13.108;2023-04-15T02:58:34;7.60;99.90
9776;DHT22;4927;52.472;13.108;2023-04-15T02:59:35;7.60;99.90
9776;DHT22;4927;52.472;13.108;2023-04-15T03:00:37;7.70;99.90
9776;DHT22;4927;52.472;13.108;2023-04-15T03:01:39;7.60;99.90
9776;DHT22;4927;52.472;13.108;2023-04-15T03:02:41;7.70;99.90
9776;DHT22;4927;52.472;13.108;2023-04-15T03:03:43;7.70;99.90
9776;DHT22;4927;52.472;13.108;2023-04-15T03:04:45;7.70;99.90
9776;DHT22;4927;52.472;13.108;2023-04-15T03:05:46;7.70;99.90
9776;DHT22;4927;52.472;13.108;2023-04-15T03:06:48;7.70;99.90
9776;DHT22;4927;52.472;13.108;2023-04-15T03:07:50;7.70;99.90
9776;DHT22;4927;52.472;13.108;2023-04-15T03:08:52;7.70;99.90
9776;DHT22;4927;52.472;13.108;2023-04-15T03:09:54;7.70;99.90
9776;DHT22;4927;52.472;13.108;2023-04-15T03:10:57;7.70;99.90
9776;DHT22;4927;52.472;13.108;2023-04-15T03:11:59;7.70;99.90
9776;DHT22;4927;52.472;13.108;2023-04-15T03:13:02;7.60;99.90
9776;DHT22;4927;52.472;13.108;2023-04-15T03:14:04;7.60;99.90
9776;DHT22;4927;52.472;13.108;2023-04-15T03:15:07;7.60;99.90
9776;DHT22;4927;52.472;13.108;2023-04-15T03:16:10;7.60;99.90
9776;DHT22;4927;52.472;13.108;2023-04-15T03:17:12;7.60;99.90
9776;DHT22;4927;52.472;13.108;2023-04-15T03:18:14;7.60;99.90
9776;DHT22;4927;52.472;13.108;2023-04-15T03:19:16;7.60;99.90
9776;DHT22;4927;52.472;13.108;2023-04-15T03:20:18;7.60;99.90
9776;DHT22;4927;52.472;13.108;2023-04-15T03:21:20;7.60;99.90
9776;DHT22;4927;52.472;13.108;2023-04-15T03:22:22;7.60;99.90
9776;DHT22;4927;52.472;13.108;2023-04-15T03:23:24;7.60;99.90
9776;DHT22;4927;52.472;13.108;2023-04-15T03:24:26;7.60;99.90
9776;DHT22;4927;52.472;13.108;2023-04-15T03:25:27;7.60;99.90
9776;DHT22;4927;52.472;13.108;2023-04-15T03:26:30;7.60;99.90
9776;DHT22;4927;52.472;13.108;2023-04-15T03:27:32;7.60;99.90
9776;DHT22;4927;52.472;13.108;2023-04-15T03:28:34;7.60;99.90
9776;DHT22;4927;52.472;13.108;2023-04-15T03:29:35;7.60;99.90
9776;DHT22;4927;52.472;13.108;2023-04-15T03:30:37;7.60;99.90
9776;DHT22;4927;52.472;13.108;2023-04-15T03:31:40;7.60;99.90
9776;DHT22;4927;52.472;13.108;2023-04-15T03:32:42;7.60;99.90
9776;DHT22;4927;52.472;13.108;2023-04-15T03:33:44;7.60;99.90
9776;DHT22;4927;52.472;13.108;2023-04-15T03:34:46;7.60;99.90
9776;DHT22;4927;52.472;13.108;2023-04-15T03:35:49;7.60;99.90
9776;DHT22;4927;52.472;13.108;2023-04-15T03:36:49;7.60;99.90
9776;DHT22;4927;52.472;13.108;2023-04-15T03:37:51;7.60;99.90
9776;DHT22;4927;52.472;13.108;2023-04-15T03:38:53;7.60;99.90
9776;DHT22;4927;52.472;13.108;2023-04-15T03:39:55;7.60;99.90
9776;DHT22;4927;52.472;13.108;2023-04-15T03:40:57;7.60;99.90
9776;DHT22;4927;52.472;13.108;2023-04-15T03:41:59;7.60;99.90
9776;DHT22;4927;52.472;13.108;2023-04-15T03:43:01;7.60;99.90
9776;DHT22;4927;52.472;13.108;2023-04-15T03:44:02;7.60;99.90
9776;DHT22;4927;52.472;13.108;2023-04-15T03:45:05;7.60;99.90
9776;DHT22;4927;52.472;13.108;2023-04-15T03:46:08;7.60;99.90
9776;DHT22;4927;52.472;13.108;2023-04-15T03:47:10;7.60;99.90
9776;DHT22;4927;52.472;13.108;2023-04-15T03:48:12;7.60;99.90
9776;DHT22;4927;52.472;13.108;2023-04-15T03:49:14;7.60;99.90
9776;DHT22;4927;52.472;13.108;2023-04-15T03:50:16;7.60;99.90
9776;DHT22;4927;52.472;13.108;2023-04-15T03:51:18;7.60;99.90
9776;DHT22;4927;52.472;13.108;2023-04-15T03:52:21;7.60;99.90
9776;DHT22;4927;52.472;13.108;2023-04-15T03:53:22;7.60;99.90
9776;DHT22;4927;52.472;13.108;2023-04-15T03:54:25;7.60;99.90
9776;DHT22;4927;52.472;13.108;2023-04-15T03:55:28;7.70;99.90
9776;DHT22;4927;52.472;13.108;2023-04-15T03:56:30;7.70;99.90
9776;DHT22;4927;52.472;13.108;2023-04-15T03:57:32;7.70;99.90
9776;DHT22;4927;52.472;13.108;2023-04-15T03:58:34;7.70;99.90
9776;DHT22;4927;52.472;13.108;2023-04-15T03:59:36;7.60;99.90
9776;DHT22;4927;52.472;13.108;2023-04-15T04:00:38;7.60;99.90
9776;DHT22;4927;52.472;13.108;2023-04-15T04:01:40;7.70;99.90
9776;DHT22;4927;52.472;13.108;2023-04-15T04:02:42;7.70;99.90
9776;DHT22;4927;52.472;13.108;2023-04-15T04:03:44;7.70;99.90
9776;DHT22;4927;52.472;13.108;2023-04-15T04:04:46;7.70;99.90
9776;DHT22;4927;52.472;13.108;2023-04-15T04:05:47;7.60;99.90
9776;DHT22;4927;52.472;13.108;2023-04-15T04:06:49;7.70;99.90
9776;DHT22;4927;52.472;13.108;2023-04-15T04:07:51;7.70;99.90
9776;DHT22;4927;52.472;13.108;2023-04-15T04:08:53;7.70;99.90
9776;DHT22;4927;52.472;13.108;2023-04-15T04:09:56;7.70;99.90
9776;DHT22;4927;52.472;13.108;2023-04-15T04:10:58;7.70;99.90
9776;DHT22;4927;52.472;13.108;2023-04-15T04:12:00;7.80;99.90
9776;DHT22;4927;52.472;13.108;2023-04-15T04:13:02;7.80;99.90
9776;DHT22;4927;52.472;13.108;2023-04-15T04:14:04;7.80;99.90
9776;DHT22;4927;52.472;13.108;2023-04-15T04:15:06;7.80;99.90
9776;DHT22;4927;52.472;13.108;2023-04-15T04:16:09;7.80;99.90
9776;DHT22;4927;52.472;13.108;2023-04-15T04:17:10;7.80;99.90
9776;DHT22;4927;52.472;13.108;2023-04-15T04:18:12;7.80;99.90
9776;DHT22;4927;52.472;13.108;2023-04-15T04:19:15;7.80;99.90
9776;DHT22;4927;52.472;13.108;2023-04-15T04:20:16;7.80;99.90
9776;DHT22;4927;52.472;13.108;2023-04-15T04:21:18;7.80;99.90
9776;DHT22;4927;52.472;13.108;2023-04-15T04:22:21;7.80;99.90
9776;DHT22;4927;52.472;13.108;2023-04-15T04:23:23;7.80;99.90
9776;DHT22;4927;52.472;13.108;2023-04-15T04:24:24;7.80;99.90
9776;DHT22;4927;52.472;13.108;2023-04-15T04:25:26;7.80;99.90
9776;DHT22;4927;52.472;13.108;2023-04-15T04:26:28;7.90;99.90
9776;DHT22;4927;52.472;13.108;2023-04-15T04:27:30;7.90;99.90
9776;DHT22;4927;52.472;13.108;2023-04-15T04:28:32;7.90;99.90
9776;DHT22;4927;52.472;13.108;2023-04-15T04:29:33;7.80;99.90
9776;DHT22;4927;52.472;13.108;2023-04-15T04:30:36;7.90;99.90
9776;DHT22;4927;52.472;13.108;2023-04-15T04:31:38;7.90;99.90
9776;DHT22;4927;52.472;13.108;2023-04-15T04:32:39;7.90;99.90
9776;DHT22;4927;52.472;13.108;2023-04-15T04:33:41;7.90;99.90
9776;DHT22;4927;52.472;13.108;2023-04-15T04:34:43;7.90;99.90
9776;DHT22;4927;52.472;13.108;2023-04-15T04:35:45;7.90;99.90
9776;DHT22;4927;52.472;13.108;2023-04-15T04:36:46;7.90;99.90
9776;DHT22;4927;52.472;13.108;2023-04-15T04:37:48;7.90;99.90
9776;DHT22;4927;52.472;13.108;2023-04-15T04:38:50;7.90;99.90
9776;DHT22;4927;52.472;13.108;2023-04-15T04:39:52;7.90;99.90
9776;DHT22;4927;52.472;13.108;2023-04-15T04:40:54;7.90;99.90
9776;DHT22;4927;52.472;13.108;2023-04-15T04:41:56;7.90;99.90
9776;DHT22;4927;52.472;13.108;2023-04-15T04:42:58;7.90;99.90
9776;DHT22;4927;52.472;13.108;2023-04-15T04:44:00;7.90;99.90
9776;DHT22;4927;52.472;13.108;2023-04-15T04:45:02;7.90;99.90
9776;DHT22;4927;52.472;13.108;2023-04-15T04:46:04;7.90;99.90
9776;DHT22;4927;52.472;13.108;2023-04-15T04:47:05;7.90;99.90
9776;DHT22;4927;52.472;13.108;2023-04-15T04:48:07;7.90;99.90
9776;DHT22;4927;52.472;13.108;2023-04-15T04:49:10;8.00;99.90
9776;DHT22;4927;52.472;13.108;2023-04-15T04:50:12;8.00;99.90
9776;DHT22;4927;52.472;13.108;2023-04-15T04:51:13;8.00;99.90
9776;DHT22;4927;52.472;13.108;2023-04-15T04:52:15;8.00;99.90
9776;DHT22;4927;52.472;13.108;2023-04-15T04:53:17;8.00;99.90
9776;DHT22;4927;52.472;13.108;2023-04-15T04:54:19;8.00;99.90
9776;DHT22;4927;52.472;13.108;2023-04-15T04:55:20;8.00;99.90
9776;DHT22;4927;52.472;13.108;2023-04-15T04:56:22;8.00;99.90
9776;DHT22;4927;52.472;13.108;2023-04-15T04:57:24;8.00;99.90
9776;DHT22;4927;52.472;13.108;2023-04-15T04:58:26;8.00;99.90
9776;DHT22;4927;52.472;13.108;2023-04-15T04:59:28;8.00;99.90
9776;DHT22;4927;52.472;13.108;2023-04-15T05:00:30;8.00;99.90
9776;DHT22;4927;52.472;13.108;2023-04-15T05:01:31;8.00;99.90
9776;DHT22;4927;52.472;13.108;2023-04-15T05:02:33;8.00;99.90
9776;DHT22;4927;52.472;13.108;2023-04-15T05:03:36;8.00;99.90
9776;DHT22;4927;52.472;13.108;2023-04-15T05:04:38;8.00;99.90
9776;DHT22;4927;52.472;13.108;2023-04-15T05:05:40;8.00;99.90
9776;DHT22;4927;52.472;13.108;2023-04-15T05:06:41;8.00;99.90
9776;DHT22;4927;52.472;13.108;2023-04-15T05:07:43;8.00;99.90
9776;DHT22;4927;52.472;13.108;2023-04-15T05:08:45;8.00;99.90
9776;DHT22;4927;52.472;13.108;2023-04-15T05:09:47;8.00;99.90
9776;DHT22;4927;52.472;13.108;2023-04-15T05:10:48;8.00;99.90
9776;DHT22;4927;52.472;13.108;2023-04-15T05:11:50;8.10;99.90
9776;DHT22;4927;52.472;13.108;2023-04-15T05:12:52;8.10;99.90
9776;DHT22;4927;52.472;13.108;2023-04-15T05:13:53;8.10;99.90
9776;DHT22;4927;52.472;13.108;2023-04-15T05:14:55;8.10;99.90
9776;DHT22;4927;52.472;13.108;2023-04-15T05:15:58;8.10;99.90
9776;DHT22;4927;52.472;13.108;2023-04-15T05:17:00;8.10;99.90
9776;DHT22;4927;52.472;13.108;2023-04-15T05:18:02;8.10;99.90
9776;DHT22;4927;52.472;13.108;2023-04-15T05:19:04;8.10;99.90
9776;DHT22;4927;52.472;13.108;2023-04-15T05:20:07;8.10;99.90
9776;DHT22;4927;52.472;13.108;2023-04-15T05:21:09;8.20;99.90
9776;DHT22;4927;52.472;13.108;2023-04-15T05:22:12;8.20;99.90
9776;DHT22;4927;52.472;13.108;2023-04-15T05:23:14;8.20;99.90
9776;DHT22;4927;52.472;13.108;2023-04-15T05:24:16;8.20;99.90
9776;DHT22;4927;52.472;13.108;2023-04-15T05:25:17;8.20;99.90
9776;DHT22;4927;52.472;13.108;2023-04-15T05:26:19;8.30;99.90
9776;DHT22;4927;52.472;13.108;2023-04-15T05:27:21;8.20;99.90
9776;DHT22;4927;52.472;13.108;2023-04-15T05:28:23;8.20;99.90
9776;DHT22;4927;52.472;13.108;2023-04-15T05:29:24;8.20;99.90
9776;DHT22;4927;52.472;13.108;2023-04-15T05:30:26;8.30;99.90
9776;DHT22;4927;52.472;13.108;2023-04-15T05:31:28;8.30;99.90
9776;DHT22;4927;52.472;13.108;2023-04-15T05:32:29;8.30;99.90
9776;DHT22;4927;52.472;13.108;2023-04-15T05:33:32;8.30;99.90
9776;DHT22;4927;52.472;13.108;2023-04-15T05:34:34;8.30;99.90
9776;DHT22;4927;52.472;13.108;2023-04-15T05:35:35;8.30;99.90
9776;DHT22;4927;52.472;13.108;2023-04-15T05:36:37;8.30;99.90
9776;DHT22;4927;52.472;13.108;2023-04-15T05:37:39;8.30;99.90
9776;DHT22;4927;52.472;13.108;2023-04-15T05:38:41;8.30;99.90
9776;DHT22;4927;52.472;13.108;2023-04-15T05:39:43;8.40;99.90
9776;DHT22;4927;52.472;13.108;2023-04-15T05:40:45;8.40;99.90
9776;DHT22;4927;52.472;13.108;2023-04-15T05:41:46;8.40;99.90
9776;DHT22;4927;52.472;13.108;2023-04-15T05:42:48;8.40;99.90
9776;DHT22;4927;52.472;13.108;2023-04-15T05:43:50;8.40;99.90
9776;DHT22;4927;52.472;13.108;2023-04-15T05:44:52;8.50;99.90
9776;DHT22;4927;52.472;13.108;2023-04-15T05:45:54;8.40;99.90
9776;DHT22;4927;52.472;13.108;2023-04-15T05:46:56;8.40;99.90
9776;DHT22;4927;52.472;13.108;2023-04-15T05:47:58;8.40;99.90
9776;DHT22;4927;52.472;13.108;2023-04-15T05:49:00;8.40;99.90
9776;DHT22;4927;52.472;13.108;2023-04-15T05:50:02;8.40;99.90
9776;DHT22;4927;52.472;13.108;2023-04-15T05:51:04;8.40;99.90
9776;DHT22;4927;52.472;13.108;2023-04-15T05:52:06;8.40;99.90
9776;DHT22;4927;52.472;13.108;2023-04-15T05:53:08;8.40;99.90
9776;DHT22;4927;52.472;13.108;2023-04-15T05:54:10;8.40;99.90
9776;DHT22;4927;52.472;13.108;2023-04-15T05:55:12;8.50;99.90
9776;DHT22;4927;52.472;13.108;2023-04-15T05:56:14;8.50;99.90
9776;DHT22;4927;52.472;13.108;2023-04-15T05:57:16;8.50;99.90
9776;DHT22;4927;52.472;13.108;2023-04-15T05:58:18;8.50;99.90
9776;DHT22;4927;52.472;13.108;2023-04-15T05:59:19;8.40;99.90
9776;DHT22;4927;52.472;13.108;2023-04-15T06:00:21;8.50;99.90
9776;DHT22;4927;52.472;13.108;2023-04-15T06:01:23;8.50;99.90
9776;DHT22;4927;52.472;13.108;2023-04-15T06:02:25;8.50;99.90
9776;DHT22;4927;52.472;13.108;2023-04-15T06:03:27;8.50;99.90
9776;DHT22;4927;52.472;13.108;2023-04-15T06:04:29;8.50;99.90
9776;DHT22;4927;52.472;13.108;2023-04-15T06:05:31;8.50;99.90
9776;DHT22;4927;52.472;13.108;2023-04-15T06:06:32;8.50;99.90
9776;DHT22;4927;52.472;13.108;2023-04-15T06:07:35;8.60;99.90
9776;DHT22;4927;52.472;13.108;2023-04-15T06:08:37;8.60;99.90
9776;DHT22;4927;52.472;13.108;2023-04-15T06:09:38;8.60;99.90
9776;DHT22;4927;52.472;13.108;2023-04-15T06:10:40;8.60;99.90
9776;DHT22;4927;52.472;13.108;2023-04-15T06:11:42;8.60;99.90
9776;DHT22;4927;52.472;13.108;2023-04-15T06:12:44;8.60;99.90
9776;DHT22;4927;52.472;13.108;2023-04-15T06:13:47;8.70;99.90
9776;DHT22;4927;52.472;13.108;2023-04-15T06:14:49;8.60;99.90
9776;DHT22;4927;52.472;13.108;2023-04-15T06:15:50;8.70;99.90
9776;DHT22;4927;52.472;13.108;2023-04-15T06:16:52;8.70;99.90
9776;DHT22;4927;52.472;13.108;2023-04-15T06:17:54;8.70;99.90
9776;DHT22;4927;52.472;13.108;2023-04-15T06:18:55;8.70;99.90
9776;DHT22;4927;52.472;13.108;2023-04-15T06:19:57;8.80;99.90
9776;DHT22;4927;52.472;13.108;2023-04-15T06:20:59;8.80;99.90
9776;DHT22;4927;52.472;13.108;2023-04-15T06:22:01;8.80;99.90
9776;DHT22;4927;52.472;13.108;2023-04-15T06:23:04;8.90;99.90
9776;DHT22;4927;52.472;13.108;2023-04-15T06:24:07;8.90;99.90
9776;DHT22;4927;52.472;13.108;2023-04-15T06:25:08;8.90;99.90
9776;DHT22;4927;52.472;13.108;2023-04-15T06:26:10;8.90;99.90
9776;DHT22;4927;52.472;13.108;2023-04-15T06:27:12;8.90;99.90
9776;DHT22;4927;52.472;13.108;2023-04-15T06:28:14;9.00;99.90
9776;DHT22;4927;52.472;13.108;2023-04-15T06:29:15;9.00;99.90
9776;DHT22;4927;52.472;13.108;2023-04-15T06:30:18;9.00;99.90
9776;DHT22;4927;52.472;13.108;2023-04-15T06:31:20;9.00;99.90
9776;DHT22;4927;52.472;13.108;2023-04-15T06:32:21;9.00;99.90
9776;DHT22;4927;52.472;13.108;2023-04-15T06:33:23;9.10;99.90
9776;DHT22;4927;52.472;13.108;2023-04-15T06:34:26;9.10;99.90
9776;DHT22;4927;52.472;13.108;2023-04-15T06:35:28;9.10;99.90
9776;DHT22;4927;52.472;13.108;2023-04-15T06:36:30;9.10;99.90
9776;DHT22;4927;52.472;13.108;2023-04-15T06:37:31;9.10;99.90
9776;DHT22;4927;52.472;13.108;2023-04-15T06:38:33;9.20;99.90
9776;DHT22;4927;52.472;13.108;2023-04-15T06:39:35;9.20;99.90
9776;DHT22;4927;52.472;13.108;2023-04-15T06:40:36;9.20;99.90
9776;DHT22;4927;52.472;13.108;2023-04-15T06:41:39;9.20;99.90
9776;DHT22;4927;52.472;13.108;2023-04-15T06:42:41;9.20;99.90
9776;DHT22;4927;52.472;13.108;2023-04-15T06:43:42;9.20;99.90
9776;DHT22;4927;52.472;13.108;2023-04-15T06:44:44;9.20;99.90